Time;durP1;ratioP1;P1;durP2;ratioP2;P2;SDS_P1;SDS_P2;PMS_P1;PMS_P2;Temp;Humidity;BMP_temperature;BMP_pressure;BME280_temperature;BME280_humidity;BME280_pressure;Samples;Min_cycle;Max_cycle;Signal;HPM_P1;HPM_P2
2023/01/07 00:01:17;;;;;;;;;;;;;;;9.34;70.99;98514.59;4973816;28;19926;-76
2023/01/07 00:03:46;;;;;;;;;;;;;;;9.25;70.98;98522.53;4991883;28;20386;-77
2023/01/07 00:06:14;;;;;;;;;;;;;;;9.20;71.39;98522.59;4992700;28;19988;-78
2023/01/07 00:08:43;;;;;;;;;;;;;;;9.22;71.35;98519.63;4992542;28;19933;-79
2023/01/07 00:11:12;;;;;;;;;;;;;;;9.19;71.52;98519.09;4993365;28;20392;-77
2023/01/07 00:13:42;;;;;;;;;;;;;;;9.22;71.37;98520.44;4992013;28;20757;-77
2023/01/07 00:16:11;;;;;;;;;;;;;;;9.24;71.05;98520.13;4993679;28;19934;-79
2023/01/07 00:18:39;;;;;;;;;;;;;;;9.28;70.58;98516.56;4994576;28;19926;-76
2023/01/07 00:21:07;;;;;;;;;;;;;;;9.22;71.09;98516.91;4993847;28;19941;-78
2023/01/07 00:23:35;;;;;;;;;;;;;;;9.23;70.93;98510.38;4991693;28;20032;-78
2023/01/07 00:26:04;;;;;;;;;;;;;;;9.13;71.26;98514.81;4993123;28;20363;-78
2023/01/07 00:28:33;;;;;;;;;;;;;;;9.09;71.58;98505.63;4991136;28;19925;-78
2023/01/07 00:31:03;;;;;;;;;;;;;;;9.09;71.82;98502.13;4989981;28;19937;-78
2023/01/07 00:33:34;;;;;;;;;;;;;;;9.11;71.91;98503.47;4975438;28;19926;-78
2023/01/07 00:36:03;;;;;;;;;;;;;;;9.13;72.17;98503.97;4974212;28;20025;-75
2023/01/07 00:38:31;;;;;;;;;;;;;;;9.18;71.53;98500.41;4976680;28;19930;-78
2023/01/07 00:41:00;;;;;;;;;;;;;;;9.18;71.81;98503.09;4958739;28;19929;-77
2023/01/07 00:43:29;;;;;;;;;;;;;;;9.16;71.30;98491.72;4974299;28;19926;-78
2023/01/07 00:45:57;;;;;;;;;;;;;;;9.17;71.60;98498.78;4977687;28;19929;-78
2023/01/07 00:48:26;;;;;;;;;;;;;;;9.17;71.98;98502.31;4989865;28;19933;-77
2023/01/07 00:50:56;;;;;;;;;;;;;;;9.23;71.10;98497.63;4991402;28;19926;-78
2023/01/07 00:53:52;;;;;;;;;;;;;;;9.10;72.12;98501.81;4973472;28;20011;-78
2023/01/07 00:56:20;;;;;;;;;;;;;;;9.09;72.80;98502.91;4985039;28;19961;-78
2023/01/07 00:58:48;;;;;;;;;;;;;;;9.09;72.11;98496.69;4990957;28;19961;-78
2023/01/07 01:01:18;;;;;;;;;;;;;;;9.08;72.47;98492.38;4972003;28;19926;-78
2023/01/07 01:03:52;;;;;;;;;;;;;;;9.09;72.14;98496.69;4974656;28;20387;-75
2023/01/07 01:06:20;;;;;;;;;;;;;;;9.16;71.84;98486.31;4952288;28;19941;-77
2023/01/07 01:08:50;;;;;;;;;;;;;;;9.09;72.40;98491.28;4955937;28;19926;-78
2023/01/07 01:11:18;;;;;;;;;;;;;;;9.11;72.37;98487.19;4951659;28;19938;-78
2023/01/07 01:13:46;;;;;;;;;;;;;;;9.13;72.32;98486.91;4967372;28;20295;-73
2023/01/07 01:16:15;;;;;;;;;;;;;;;9.13;72.44;98492.31;4969459;28;19926;-78
2023/01/07 01:18:44;;;;;;;;;;;;;;;9.14;72.32;98488.50;4972461;28;19926;-78
2023/01/07 01:21:13;;;;;;;;;;;;;;;9.18;72.42;98490.38;4953989;28;20777;-78
2023/01/07 01:23:41;;;;;;;;;;;;;;;9.18;72.15;98478.72;4974997;28;20387;-77
2023/01/07 01:26:10;;;;;;;;;;;;;;;9.19;72.30;98496.59;4958611;28;20303;-78
2023/01/07 01:28:38;;;;;;;;;;;;;;;9.15;72.50;98490.91;4976063;28;19933;-78
2023/01/07 01:31:08;;;;;;;;;;;;;;;9.20;72.51;98492.78;4976156;28;20028;-78
2023/01/07 01:33:43;;;;;;;;;;;;;;;9.25;72.17;98479.16;4966400;28;20308;-78
2023/01/07 01:36:13;;;;;;;;;;;;;;;9.31;72.13;98486.13;4977597;28;19934;-77
2023/01/07 01:38:41;;;;;;;;;;;;;;;9.35;71.70;98476.34;4958856;28;19933;-78
2023/01/07 01:41:10;;;;;;;;;;;;;;;9.30;71.77;98481.81;4954223;28;19977;-78
2023/01/07 01:43:41;;;;;;;;;;;;;;;9.30;72.18;98475.59;4958960;28;19930;-78
2023/01/07 01:46:11;;;;;;;;;;;;;;;9.29;72.23;98479.41;4951688;28;19927;-75
2023/01/07 01:48:40;;;;;;;;;;;;;;;9.26;72.04;98477.25;4976127;28;20272;-78
2023/01/07 01:51:10;;;;;;;;;;;;;;;9.18;72.38;98476.00;4976179;28;19926;-78
2023/01/07 01:53:40;;;;;;;;;;;;;;;9.16;72.51;98484.44;4961213;28;19930;-78
2023/01/07 01:56:10;;;;;;;;;;;;;;;9.03;72.98;98470.75;4960854;28;20384;-78
2023/01/07 01:58:39;;;;;;;;;;;;;;;9.14;72.95;98477.66;4977133;28;19926;-77
2023/01/07 02:01:07;;;;;;;;;;;;;;;9.11;72.93;98462.00;4959498;28;20283;-77
2023/01/07 02:03:36;;;;;;;;;;;;;;;9.10;72.99;98457.66;4972361;28;19934;-76
2023/01/07 02:06:04;;;;;;;;;;;;;;;8.87;73.47;98461.97;4974697;28;20402;-78
2023/01/07 02:08:32;;;;;;;;;;;;;;;8.85;73.61;98458.75;4996812;28;19929;-76
2023/01/07 02:11:07;;;;;;;;;;;;;;;8.91;73.04;98466.53;4976051;28;20236;-78
2023/01/07 02:13:38;;;;;;;;;;;;;;;8.82;73.81;98465.53;4977834;28;19933;-78
2023/01/07 02:16:09;;;;;;;;;;;;;;;8.79;74.05;98465.28;4974430;28;20314;-76
2023/01/07 02:18:59;;;;;;;;;;;;;;;8.72;74.39;98460.19;4995744;28;20409;-74
2023/01/07 02:21:32;;;;;;;;;;;;;;;8.87;73.62;98460.06;4992554;28;19973;-77
2023/01/07 02:24:17;;;;;;;;;;;;;;;8.76;73.94;98463.97;4993163;28;19933;-78
2023/01/07 02:27:03;;;;;;;;;;;;;;;8.74;74.03;98457.22;4992992;28;19930;-77
2023/01/07 02:30:25;;;;;;;;;;;;;;;8.70;74.46;98450.75;4977121;28;20013;-76
2023/01/07 02:33:22;;;;;;;;;;;;;;;8.72;74.77;98457.50;4976730;28;19940;-78
2023/01/07 02:35:55;;;;;;;;;;;;;;;8.77;74.68;98445.81;4977909;28;19930;-77
2023/01/07 02:38:24;;;;;;;;;;;;;;;8.83;74.55;98447.38;4975189;28;19964;-77
2023/01/07 02:40:54;;;;;;;;;;;;;;;8.82;74.72;98443.84;4993271;28;19934;-78
2023/01/07 02:43:24;;;;;;;;;;;;;;;8.78;74.90;98439.28;4994907;28;19929;-76
2023/01/07 02:45:55;;;;;;;;;;;;;;;8.74;74.77;98441.78;4976670;28;19968;-77
2023/01/07 02:48:23;;;;;;;;;;;;;;;8.79;74.94;98438.19;4977475;28;19925;-78
2023/01/07 02:50:56;;;;;;;;;;;;;;;8.81;74.85;98436.81;4976354;28;19925;-78
2023/01/07 02:56:19;;;;;;;;;;;;;;;8.86;74.70;98420.50;4976011;28;19926;-75
2023/01/07 02:58:59;;;;;;;;;;;;;;;8.87;74.51;98421.31;4977979;28;20391;-78
2023/01/07 03:01:32;;;;;;;;;;;;;;;8.78;74.88;98420.31;4978978;28;20020;-77
2023/01/07 03:04:25;;;;;;;;;;;;;;;8.81;74.43;98409.72;4976722;28;19961;-78
2023/01/07 03:07:18;;;;;;;;;;;;;;;8.66;75.01;98415.31;4974837;28;19934;-77
2023/01/07 03:10:11;;;;;;;;;;;;;;;8.67;75.05;98419.63;4972509;28;20332;-79
2023/01/07 03:12:41;;;;;;;;;;;;;;;8.61;75.32;98416.16;4966044;28;19981;-76
2023/01/07 03:15:11;;;;;;;;;;;;;;;8.62;75.26;98406.94;4987752;28;19926;-79
2023/01/07 03:17:40;;;;;;;;;;;;;;;8.72;75.14;98410.63;4983303;28;19926;-78
2023/01/07 03:20:10;;;;;;;;;;;;;;;8.57;75.81;98414.31;4971135;28;20475;-75
2023/01/07 03:22:38;;;;;;;;;;;;;;;8.66;75.46;98410.69;4972380;28;19926;-77
2023/01/07 03:25:06;;;;;;;;;;;;;;;8.76;75.27;98404.38;4986047;28;19934;-78
2023/01/07 03:27:34;;;;;;;;;;;;;;;8.70;75.25;98400.09;4971294;28;19969;-76
2023/01/07 03:30:09;;;;;;;;;;;;;;;8.73;75.17;98396.00;4987675;28;21637;-70
2023/01/07 03:32:38;;;;;;;;;;;;;;;8.65;75.54;98394.72;4971816;28;20021;-78
2023/01/07 03:35:07;;;;;;;;;;;;;;;8.59;75.72;98395.88;4971900;28;20343;-78
2023/01/07 03:40:28;;;;;;;;;;;;;;;8.63;75.92;98388.81;4989981;28;19926;-77
2023/01/07 03:42:57;;;;;;;;;;;;;;;8.67;75.65;98387.13;4968557;28;19950;-78
2023/01/07 03:45:28;;;;;;;;;;;;;;;8.71;75.77;98385.44;4973527;28;19927;-78
2023/01/07 03:47:58;;;;;;;;;;;;;;;8.75;75.55;98388.41;4973475;28;20458;-76
2023/01/07 03:50:33;;;;;;;;;;;;;;;8.75;74.95;98380.28;4974734;28;19980;-78
2023/01/07 03:53:01;;;;;;;;;;;;;;;8.66;75.61;98380.09;4972852;28;20014;-77
2023/01/07 03:55:33;;;;;;;;;;;;;;;8.61;75.85;98377.44;4969554;28;19926;-77
2023/01/07 03:58:26;;;;;;;;;;;;;;;8.67;75.76;98368.16;4972345;28;19933;-77
2023/01/07 04:00:55;;;;;;;;;;;;;;;8.63;75.60;98370.66;4970027;28;19926;-78
2023/01/07 04:03:24;;;;;;;;;;;;;;;8.61;75.82;98366.59;4973894;28;19937;-78
2023/01/07 04:05:52;;;;;;;;;;;;;;;8.63;75.78;98367.94;4955337;28;19930;-78
2023/01/07 04:08:22;;;;;;;;;;;;;;;8.70;75.67;98364.09;4955310;28;20313;-78
2023/01/07 04:10:49;;;;;;;;;;;;;;;8.64;75.73;98361.44;4955243;28;19926;-78
2023/01/07 04:13:18;;;;;;;;;;;;;;;8.69;75.55;98354.34;4958553;28;19926;-77
2023/01/07 04:15:48;;;;;;;;;;;;;;;8.65;75.71;98357.63;4959524;28;19930;-77
2023/01/07 04:18:18;;;;;;;;;;;;;;;8.61;75.98;98353.06;4977162;28;20017;-74
2023/01/07 04:20:47;;;;;;;;;;;;;;;8.59;76.23;98347.13;4954627;28;19933;-76
2023/01/07 04:23:17;;;;;;;;;;;;;;;8.64;75.71;98347.09;4969826;28;19930;-78
2023/01/07 04:25:48;;;;;;;;;;;;;;;8.64;75.68;98347.09;4968671;28;20393;-78
2023/01/07 04:28:20;;;;;;;;;;;;;;;8.65;75.81;98345.97;4953192;28;19926;-77
2023/01/07 04:30:48;;;;;;;;;;;;;;;8.63;75.82;98343.56;4972108;28;19933;-78
2023/01/07 04:33:27;;;;;;;;;;;;;;;8.66;75.75;98331.34;4957167;28;19933;-78
2023/01/07 04:35:56;;;;;;;;;;;;;;;8.60;76.15;98327.06;4973083;28;19926;-78
2023/01/07 04:38:25;;;;;;;;;;;;;;;8.73;75.69;98336.41;4962470;28;19926;-78
2023/01/07 04:40:55;;;;;;;;;;;;;;;8.65;75.58;98324.31;4954698;28;19949;-78
2023/01/07 04:43:23;;;;;;;;;;;;;;;8.70;75.72;98323.44;4958181;28;19984;-75
2023/01/07 04:45:51;;;;;;;;;;;;;;;8.62;75.50;98322.16;4956545;28;19934;-79
2023/01/07 04:48:20;;;;;;;;;;;;;;;8.59;76.05;98320.06;4960496;28;19926;-77
2023/01/07 04:50:53;;;;;;;;;;;;;;;8.59;76.42;98320.84;4970841;28;19926;-78
2023/01/07 04:53:49;;;;;;;;;;;;;;;8.56;76.42;98323.31;4952049;28;19930;-78
2023/01/07 04:56:18;;;;;;;;;;;;;;;8.61;76.12;98325.97;4968997;28;19927;-72
2023/01/07 04:58:49;;;;;;;;;;;;;;;8.58;76.18;98308.41;4970908;28;19927;-75
2023/01/07 05:01:18;;;;;;;;;;;;;;;8.58;75.80;98310.31;4964643;28;19965;-79
2023/01/07 05:03:47;;;;;;;;;;;;;;;8.62;75.97;98309.44;4970057;28;19933;-77
2023/01/07 05:06:17;;;;;;;;;;;;;;;8.62;76.05;98308.63;4986053;28;19926;-78
2023/01/07 05:08:45;;;;;;;;;;;;;;;8.64;76.22;98306.44;4974080;28;19961;-75
2023/01/07 05:11:20;;;;;;;;;;;;;;;8.68;76.06;98296.63;4974014;28;20343;-77
2023/01/07 05:13:51;;;;;;;;;;;;;;;8.72;76.04;98297.66;4991299;28;19985;-78
2023/01/07 05:16:22;;;;;;;;;;;;;;;8.79;75.65;98292.72;4989679;28;20398;-77
2023/01/07 05:18:52;;;;;;;;;;;;;;;8.73;75.72;98279.50;4974367;28;19984;-76
2023/01/07 05:21:21;;;;;;;;;;;;;;;8.73;75.61;98276.81;4975377;28;20013;-78
2023/01/07 05:23:50;;;;;;;;;;;;;;;8.79;75.74;98281.06;4970681;28;19933;-77
2023/01/07 05:26:19;;;;;;;;;;;;;;;8.79;75.58;98281.06;4972074;28;20015;-78
2023/01/07 05:28:48;;;;;;;;;;;;;;;8.78;75.51;98279.44;4989699;28;19926;-77
2023/01/07 05:31:16;;;;;;;;;;;;;;;8.79;75.52;98284.59;4974449;28;19925;-77
2023/01/07 05:33:45;;;;;;;;;;;;;;;8.70;75.52;98277.41;4973692;28;19926;-70
2023/01/07 05:36:13;;;;;;;;;;;;;;;8.62;76.00;98270.72;4973725;28;19934;-78
2023/01/07 05:38:43;;;;;;;;;;;;;;;8.52;76.16;98278.94;4974903;28;19925;-78
2023/01/07 05:41:12;;;;;;;;;;;;;;;8.65;75.85;98272.84;4973650;28;19937;-78
2023/01/07 05:43:41;;;;;;;;;;;;;;;8.51;76.42;98271.94;4973817;28;19930;-77
2023/01/07 05:46:09;;;;;;;;;;;;;;;8.51;76.31;98277.34;4987041;28;19926;-78
2023/01/07 05:48:37;;;;;;;;;;;;;;;8.54;76.45;98274.06;4991431;28;19933;-77
2023/01/07 05:51:07;;;;;;;;;;;;;;;8.49;76.54;98268.72;4990160;28;19992;-77
2023/01/07 05:53:36;;;;;;;;;;;;;;;8.46;76.73;98272.78;4991173;28;19934;-77
2023/01/07 05:56:05;;;;;;;;;;;;;;;8.55;76.52;98275.69;4990298;28;19929;-77
2023/01/07 05:58:33;;;;;;;;;;;;;;;8.60;76.14;98268.28;4988338;28;19968;-78
2023/01/07 06:01:02;;;;;;;;;;;;;;;8.57;76.22;98273.47;4970042;28;19930;-77
2023/01/07 06:03:30;;;;;;;;;;;;;;;8.61;76.12;98263.69;4973808;28;20397;-77
2023/01/07 06:06:05;;;;;;;;;;;;;;;8.66;76.04;98261.72;4989652;28;19957;-76
2023/01/07 06:08:33;;;;;;;;;;;;;;;8.70;75.62;98261.94;4995259;28;19926;-77
2023/01/07 06:11:02;;;;;;;;;;;;;;;8.69;75.91;98260.34;4994043;28;19925;-77
2023/01/07 06:13:31;;;;;;;;;;;;;;;8.74;75.96;98257.56;4993529;28;19930;-77
2023/01/07 06:16:00;;;;;;;;;;;;;;;8.69;75.72;98259.53;4995535;28;19929;-76
2023/01/07 06:18:28;;;;;;;;;;;;;;;8.72;75.93;98258.94;4991550;28;19926;-77
2023/01/07 06:20:56;;;;;;;;;;;;;;;8.63;75.85;98256.91;4992851;28;19937;-77
2023/01/07 06:23:24;;;;;;;;;;;;;;;8.57;75.92;98251.81;4993577;28;19933;-74
2023/01/07 06:26:16;;;;;;;;;;;;;;;8.46;76.57;98255.75;4991110;28;20319;-77
2023/01/07 06:28:47;;;;;;;;;;;;;;;8.52;76.54;98257.28;4993314;28;20351;-72
2023/01/07 06:31:15;;;;;;;;;;;;;;;8.44;76.65;98244.41;4976568;28;19948;-77
2023/01/07 06:33:45;;;;;;;;;;;;;;;8.42;76.70;98250.13;4994240;28;19985;-70
2023/01/07 06:36:13;;;;;;;;;;;;;;;8.40;76.87;98253.09;4992034;28;19933;-77
2023/01/07 06:38:41;;;;;;;;;;;;;;;8.39;77.08;98247.97;4991694;28;20299;-77
2023/01/07 06:41:09;;;;;;;;;;;;;;;8.49;76.34;98242.44;4992516;28;19932;-77
2023/01/07 06:43:37;;;;;;;;;;;;;;;8.50;76.72;98241.34;4992181;28;20487;-77
2023/01/07 06:46:07;;;;;;;;;;;;;;;8.48;76.56;98242.75;4992785;28;20287;-77
2023/01/07 06:48:35;;;;;;;;;;;;;;;8.46;76.85;98232.16;4991930;28;19925;-77
2023/01/07 06:51:05;;;;;;;;;;;;;;;8.51;76.69;98231.31;4993641;28;20367;-76
2023/01/07 06:53:36;;;;;;;;;;;;;;;8.40;76.99;98231.44;4992002;28;19949;-76
2023/01/07 06:56:04;;;;;;;;;;;;;;;8.45;76.81;98232.47;4975004;28;19925;-77
2023/01/07 06:58:32;;;;;;;;;;;;;;;8.44;76.95;98237.09;4992662;28;20379;-73
2023/01/07 07:01:25;;;;;;;;;;;;;;;8.59;76.59;98228.78;4991874;28;19996;-74
2023/01/07 07:04:19;;;;;;;;;;;;;;;8.54;76.67;98234.25;4998033;28;19952;-77
2023/01/07 07:06:47;;;;;;;;;;;;;;;8.56;76.59;98236.66;4991783;28;19933;-76
2023/01/07 07:09:21;;;;;;;;;;;;;;;8.59;76.64;98227.97;4973821;28;19929;-77
2023/01/07 07:11:49;;;;;;;;;;;;;;;8.42;76.91;98222.25;4990129;28;20413;-76
2023/01/07 07:14:19;;;;;;;;;;;;;;;8.35;77.22;98223.34;4974913;28;20319;-77
2023/01/07 07:16:49;;;;;;;;;;;;;;;8.54;76.93;98219.91;4990419;28;19925;-76
2023/01/07 07:19:18;;;;;;;;;;;;;;;8.60;76.82;98218.75;4976063;28;19926;-77
2023/01/07 07:21:46;;;;;;;;;;;;;;;8.64;76.45;98219.78;4969329;28;19934;-76
2023/01/07 07:24:14;;;;;;;;;;;;;;;8.57;76.53;98220.13;4992716;28;20287;-76
2023/01/07 07:26:45;;;;;;;;;;;;;;;8.66;76.29;98217.56;4991728;28;19953;-76
2023/01/07 07:29:13;;;;;;;;;;;;;;;8.60;76.54;98210.63;4973853;28;19934;-75
2023/01/07 07:31:41;;;;;;;;;;;;;;;8.48;76.64;98216.47;4986932;28;20379;-76
2023/01/07 07:34:09;;;;;;;;;;;;;;;8.54;77.02;98214.50;4991250;28;19934;-76
2023/01/07 07:36:38;;;;;;;;;;;;;;;8.45;77.25;98210.81;4991749;28;19933;-77
2023/01/07 07:39:07;;;;;;;;;;;;;;;8.53;77.09;98210.19;4971301;28;20387;-76
2023/01/07 07:41:35;;;;;;;;;;;;;;;8.63;76.62;98207.34;4978521;28;20334;-77
2023/01/07 07:44:07;;;;;;;;;;;;;;;8.69;76.21;98208.88;4972569;28;20350;-71
2023/01/07 07:46:35;;;;;;;;;;;;;;;8.69;76.33;98206.19;4973123;28;19925;-77
2023/01/07 07:49:04;;;;;;;;;;;;;;;8.64;76.32;98207.03;4989119;28;20437;-75
2023/01/07 07:51:32;;;;;;;;;;;;;;;8.70;76.01;98205.06;4989070;28;19926;-74
2023/01/07 07:54:01;;;;;;;;;;;;;;;8.56;76.72;98201.47;4992262;28;19925;-76
2023/01/07 07:56:29;;;;;;;;;;;;;;;8.65;76.62;98199.72;4987144;28;19930;-75
2023/01/07 07:58:59;;;;;;;;;;;;;;;8.50;76.94;98197.22;4988608;28;19959;-76
2023/01/07 08:04:43;;;;;;;;;;;;;;;8.43;77.46;98194.06;4989255;28;19979;-73
2023/01/07 08:07:12;;;;;;;;;;;;;;;8.44;77.66;98192.97;4991456;28;19957;-75
2023/01/07 08:09:41;;;;;;;;;;;;;;;8.48;77.26;98188.59;4971911;28;19976;-65
2023/01/07 08:12:11;;;;;;;;;;;;;;;8.48;77.52;98188.59;4987888;28;19988;-65
2023/01/07 08:14:39;;;;;;;;;;;;;;;8.55;77.07;98186.31;4989883;28;19929;-65
2023/01/07 08:17:11;;;;;;;;;;;;;;;8.51;77.29;98183.38;4990434;28;19961;-64
2023/01/07 08:19:39;;;;;;;;;;;;;;;8.66;76.83;98179.66;4988591;28;19936;-65
2023/01/07 08:22:06;;;;;;;;;;;;;;;8.67;77.20;98183.97;4987573;28;19934;-64
2023/01/07 08:24:35;;;;;;;;;;;;;;;8.72;76.96;98174.97;4991294;28;19937;-66
2023/01/07 08:29:56;;;;;;;;;;;;;;;8.71;76.63;98176.88;4989515;28;20039;-65
2023/01/07 08:32:27;;;;;;;;;;;;;;;8.61;77.19;98169.69;4986358;28;20307;-65
2023/01/07 08:34:56;;;;;;;;;;;;;;;8.70;76.86;98158.22;4987871;28;19930;-65
2023/01/07 08:37:25;;;;;;;;;;;;;;;8.71;76.91;98160.63;4989441;28;19930;-65
2023/01/07 08:39:53;;;;;;;;;;;;;;;8.85;76.45;98161.50;4974140;28;20295;-67
2023/01/07 08:42:45;;;;;;;;;;;;;;;8.91;76.28;98152.22;4989957;28;19926;-65
2023/01/07 08:45:38;;;;;;;;;;;;;;;8.78;76.15;98152.13;4973454;28;19926;-69
2023/01/07 08:48:06;;;;;;;;;;;;;;;8.89;75.94;98154.41;4987065;28;19936;-65
2023/01/07 08:50:58;;;;;;;;;;;;;;;8.97;75.96;98147.50;4989636;28;19932;-65
2023/01/07 08:53:50;;;;;;;;;;;;;;;8.97;75.57;98146.72;4991287;28;19925;-65
2023/01/07 08:56:18;;;;;;;;;;;;;;;8.95;75.83;98148.88;4983102;28;20288;-65
2023/01/07 08:58:47;;;;;;;;;;;;;;;9.01;75.27;98147.75;4986320;28;19988;-64
2023/01/07 09:01:16;;;;;;;;;;;;;;;8.93;75.06;98139.16;4990738;28;19925;-65
2023/01/07 09:03:44;;;;;;;;;;;;;;;8.82;75.10;98143.13;4991919;28;19926;-64
2023/01/07 09:06:12;;;;;;;;;;;;;;;8.96;74.66;98142.41;4966843;28;20388;-65
2023/01/07 09:08:40;;;;;;;;;;;;;;;9.08;74.53;98142.75;4972240;28;19930;-65
2023/01/07 09:11:08;;;;;;;;;;;;;;;9.00;74.34;98138.81;4971079;28;19958;-65
2023/01/07 09:13:36;;;;;;;;;;;;;;;9.04;74.13;98139.00;4970911;28;19933;-65
2023/01/07 09:16:04;;;;;;;;;;;;;;;9.12;74.09;98138.34;4966500;28;19933;-65
2023/01/07 09:18:34;;;;;;;;;;;;;;;9.15;73.74;98133.13;4968915;28;19981;-65
2023/01/07 09:21:02;;;;;;;;;;;;;;;9.20;73.38;98124.09;4969507;28;19993;-65
2023/01/07 09:23:30;;;;;;;;;;;;;;;9.29;72.57;98127.75;4969145;28;19926;-65
2023/01/07 09:25:58;;;;;;;;;;;;;;;9.17;73.14;98125.50;4970665;28;19930;-66
2023/01/07 09:28:27;;;;;;;;;;;;;;;9.28;72.66;98126.13;4953572;28;20391;-66
2023/01/07 09:30:55;;;;;;;;;;;;;;;9.12;72.53;98139.16;4972708;28;19969;-65
2023/01/07 09:33:24;;;;;;;;;;;;;;;9.22;72.41;98132.75;4973466;28;19930;-65
2023/01/07 09:35:54;;;;;;;;;;;;;;;9.26;72.11;98135.66;4966991;28;19940;-65
2023/01/07 09:38:22;;;;;;;;;;;;;;;9.22;72.02;98142.78;4972792;28;20368;-65
2023/01/07 09:40:50;;;;;;;;;;;;;;;9.36;71.04;98130.88;4973350;28;19927;-65
2023/01/07 09:43:18;;;;;;;;;;;;;;;9.29;71.74;98137.78;4949494;28;19934;-65
2023/01/07 09:45:47;;;;;;;;;;;;;;;9.39;70.97;98135.72;4976008;28;19926;-64
2023/01/07 09:48:17;;;;;;;;;;;;;;;9.36;70.82;98139.00;4959779;28;19933;-65
2023/01/07 09:50:47;;;;;;;;;;;;;;;9.38;70.89;98134.09;4977407;28;19930;-66
2023/01/07 09:53:18;;;;;;;;;;;;;;;9.40;70.49;98131.88;4959104;28;19933;-65
2023/01/07 09:55:46;;;;;;;;;;;;;;;9.49;70.58;98131.22;4978114;28;20380;-66
2023/01/07 09:58:35;;;;;;;;;;;;;;;9.38;70.43;98125.97;4975197;28;19954;-65
2023/01/07 10:01:06;;;;;;;;;;;;;;;9.47;69.90;98126.06;4965451;28;19927;-66
2023/01/07 10:03:44;;;;;;;;;;;;;;;9.53;69.47;98126.78;4972142;28;19926;-63
2023/01/07 10:06:14;;;;;;;;;;;;;;;9.51;69.17;98118.16;4973520;28;20017;-65
2023/01/07 10:08:46;;;;;;;;;;;;;;;9.55;69.18;98117.25;4991642;28;20024;-65
2023/01/07 10:11:17;;;;;;;;;;;;;;;9.59;68.27;98110.13;4989106;28;19933;-65
2023/01/07 10:13:58;;;;;;;;;;;;;;;9.64;68.87;98115.47;4988938;28;19941;-64
2023/01/07 10:16:27;;;;;;;;;;;;;;;9.64;68.25;98101.91;4988744;28;19926;-65
2023/01/07 10:18:59;;;;;;;;;;;;;;;9.65;67.84;98097.28;4988880;28;19929;-65
2023/01/07 10:21:27;;;;;;;;;;;;;;;9.68;67.93;98100.19;4989166;28;19926;-65
2023/01/07 10:23:58;;;;;;;;;;;;;;;9.67;67.49;98097.78;4991930;28;20307;-65
2023/01/07 10:26:28;;;;;;;;;;;;;;;9.69;67.19;98087.41;4991938;28;19925;-66
2023/01/07 10:28:57;;;;;;;;;;;;;;;9.67;67.51;98084.22;4991432;28;20371;-66
2023/01/07 10:31:28;;;;;;;;;;;;;;;9.76;67.16;98085.13;4986900;28;19949;-65
2023/01/07 10:33:56;;;;;;;;;;;;;;;9.87;66.38;98078.38;4991192;28;19929;-65
2023/01/07 10:36:25;;;;;;;;;;;;;;;9.80;66.28;98069.84;4993745;28;20331;-65
2023/01/07 10:38:57;;;;;;;;;;;;;;;9.93;66.15;98063.59;4976857;28;19929;-65
2023/01/07 10:41:27;;;;;;;;;;;;;;;9.94;65.82;98056.25;4988665;28;19929;-66
2023/01/07 10:43:58;;;;;;;;;;;;;;;9.90;65.03;98050.63;4977104;28;19926;-66
2023/01/07 10:46:31;;;;;;;;;;;;;;;9.98;65.64;98047.22;4994994;28;20507;-65
2023/01/07 10:49:06;;;;;;;;;;;;;;;10.02;65.20;98044.69;4996131;28;19937;-66
2023/01/07 10:51:39;;;;;;;;;;;;;;;10.16;64.88;98033.81;4996336;28;19929;-65
2023/01/07 10:54:11;;;;;;;;;;;;;;;10.19;64.46;98039.44;5000425;28;19933;-66
2023/01/07 11:02:25;;;;;;;;;;;;;;;10.31;64.12;98033.50;4997042;28;20422;-66
2023/01/07 11:04:54;;;;;;;;;;;;;;;10.19;64.40;98025.84;4993224;28;19936;-64
2023/01/07 11:07:25;;;;;;;;;;;;;;;10.31;63.51;98035.41;4997138;28;19926;-69
2023/01/07 11:09:54;;;;;;;;;;;;;;;10.28;64.08;98025.16;4994682;28;19926;-71
2023/01/07 11:12:25;;;;;;;;;;;;;;;10.37;64.27;98020.59;4998450;28;19996;-70
2023/01/07 11:14:57;;;;;;;;;;;;;;;10.45;63.00;98012.53;4995952;28;19960;-66
2023/01/07 11:17:50;;;;;;;;;;;;;;;10.51;63.24;98009.69;4982508;28;19926;-64
2023/01/07 11:20:44;;;;;;;;;;;;;;;10.54;61.99;97996.28;4992756;28;19926;-65
2023/01/07 11:23:21;;;;;;;;;;;;;;;10.59;62.60;97998.06;4984772;28;19934;-64
2023/01/07 11:25:51;;;;;;;;;;;;;;;10.64;61.52;97995.25;4990804;28;19980;-65
2023/01/07 11:28:20;;;;;;;;;;;;;;;10.47;61.72;97983.13;4974329;28;19930;-65
2023/01/07 11:30:55;;;;;;;;;;;;;;;10.49;62.12;97980.94;4975144;28;20299;-65
2023/01/07 11:33:24;;;;;;;;;;;;;;;10.59;63.08;97985.28;4989697;28;20351;-65
2023/01/07 11:36:13;;;;;;;;;;;;;;;10.61;61.46;97982.28;4993031;28;20004;-65
2023/01/07 11:38:41;;;;;;;;;;;;;;;10.59;61.35;97979.06;4989080;28;20394;-65
2023/01/07 11:41:21;;;;;;;;;;;;;;;10.51;61.65;97972.47;4989627;28;19925;-65
2023/01/07 11:43:50;;;;;;;;;;;;;;;10.37;60.84;97967.09;4989179;28;19941;-65
2023/01/07 11:46:18;;;;;;;;;;;;;;;10.48;60.71;97957.56;4992956;28;19961;-65
2023/01/07 11:48:51;;;;;;;;;;;;;;;10.49;61.71;97953.78;4989296;28;19965;-65
2023/01/07 11:51:20;;;;;;;;;;;;;;;10.56;61.89;97952.53;4989594;28;19926;-65
2023/01/07 11:53:53;;;;;;;;;;;;;;;10.51;61.63;97952.66;4991528;28;19933;-65
2023/01/07 11:56:27;;;;;;;;;;;;;;;10.48;61.50;97945.91;4995778;28;19934;-65
2023/01/07 11:59:13;;;;;;;;;;;;;;;10.51;61.45;97939.06;4980673;28;19929;-65
2023/01/07 12:01:42;;;;;;;;;;;;;;;10.55;61.75;97937.34;4987439;28;20311;-65
2023/01/07 12:04:14;;;;;;;;;;;;;;;10.61;60.96;97936.91;4982798;28;19932;-65
2023/01/07 12:06:42;;;;;;;;;;;;;;;10.73;61.60;97930.88;4985867;28;20342;-67
2023/01/07 12:09:35;;;;;;;;;;;;;;;10.81;61.78;97921.97;4989209;28;19945;-66
2023/01/07 12:12:30;;;;;;;;;;;;;;;10.91;60.15;97912.75;4989276;28;19929;-67
2023/01/07 12:17:53;;;;;;;;;;;;;;;11.11;59.01;97908.69;4984959;28;19941;-65
2023/01/07 12:20:39;;;;;;;;;;;;;;;11.14;59.38;97908.84;4986026;28;19941;-67
2023/01/07 12:23:09;;;;;;;;;;;;;;;11.18;57.80;97914.44;4991687;28;19926;-66
2023/01/07 12:25:40;;;;;;;;;;;;;;;11.00;58.22;97902.72;4989466;28;19926;-66
2023/01/07 12:28:11;;;;;;;;;;;;;;;10.83;58.89;97898.00;4972944;28;19926;-66
2023/01/07 12:30:48;;;;;;;;;;;;;;;10.78;59.51;97900.88;4988693;28;19926;-68
2023/01/07 12:33:18;;;;;;;;;;;;;;;10.82;59.85;97893.69;4976886;28;19933;-68
2023/01/07 12:35:47;;;;;;;;;;;;;;;10.91;59.39;97889.09;4984149;28;19926;-67
2023/01/07 12:38:16;;;;;;;;;;;;;;;10.86;58.44;97882.97;4986291;28;19926;-67
2023/01/07 12:40:45;;;;;;;;;;;;;;;10.77;59.44;97899.28;4986772;28;19949;-67
2023/01/07 12:43:15;;;;;;;;;;;;;;;10.80;60.42;97887.75;4989751;28;20037;-67
2023/01/07 12:45:45;;;;;;;;;;;;;;;10.91;59.00;97894.50;4975297;28;19937;-67
2023/01/07 12:48:15;;;;;;;;;;;;;;;10.89;58.28;97893.25;4989241;28;19929;-68
2023/01/07 12:50:44;;;;;;;;;;;;;;;10.80;57.67;97887.75;4997085;28;19929;-68
2023/01/07 12:53:14;;;;;;;;;;;;;;;10.79;58.08;97888.88;4989499;28;19957;-67
2023/01/07 12:55:43;;;;;;;;;;;;;;;10.78;57.58;97890.00;4989800;28;19930;-67
2023/01/07 12:58:13;;;;;;;;;;;;;;;10.66;58.65;97881.63;4972296;28;20395;-67
2023/01/07 13:00:45;;;;;;;;;;;;;;;10.71;58.63;97884.22;4992100;28;20413;-67
2023/01/07 13:03:23;;;;;;;;;;;;;;;10.69;58.94;97875.56;4973182;28;20010;-67
2023/01/07 13:05:52;;;;;;;;;;;;;;;10.67;58.54;97870.44;4973708;28;19925;-68
2023/01/07 13:08:23;;;;;;;;;;;;;;;10.68;59.35;97860.38;4990934;28;19934;-67
2023/01/07 13:10:52;;;;;;;;;;;;;;;10.69;58.90;97860.06;4990588;28;19926;-67
2023/01/07 13:13:22;;;;;;;;;;;;;;;10.73;59.00;97858.31;4990345;28;19987;-67
2023/01/07 13:15:51;;;;;;;;;;;;;;;10.52;59.85;97851.84;4984329;28;19926;-68
2023/01/07 13:18:20;;;;;;;;;;;;;;;10.64;60.04;97851.25;4994955;28;20446;-67
2023/01/07 13:21:14;;;;;;;;;;;;;;;10.61;59.88;97841.81;4990910;28;19988;-65
2023/01/07 13:23:52;;;;;;;;;;;;;;;10.63;59.15;97836.06;4988727;28;19930;-67
2023/01/07 13:26:24;;;;;;;;;;;;;;;10.65;59.50;97828.38;4974361;28;19925;-66
2023/01/07 13:28:56;;;;;;;;;;;;;;;10.72;58.99;97831.47;4991003;28;19926;-67
2023/01/07 13:31:33;;;;;;;;;;;;;;;10.72;58.77;97823.31;4994272;28;19977;-66
2023/01/07 13:34:04;;;;;;;;;;;;;;;10.63;59.31;97817.03;4983841;28;19933;-67
2023/01/07 13:36:33;;;;;;;;;;;;;;;10.60;59.90;97814.94;4987817;28;19925;-66
2023/01/07 13:39:05;;;;;;;;;;;;;;;10.46;59.70;97813.13;4992975;28;19925;-67